createdAt,value
2022-11-21T00:01:25.122Z,100022.94
2022-11-21T00:03:52.258Z,100019.59
2022-11-21T00:06:19.433Z,100018.78
2022-11-21T00:08:47.142Z,100010.22
2022-11-21T00:11:14.226Z,99997.06
2022-11-21T00:13:41.716Z,99999.53
2022-11-21T00:16:13.950Z,99988.94
2022-11-21T00:18:41.765Z,99989.56
2022-11-21T00:21:12.629Z,99979.56
2022-11-21T00:23:39.679Z,99981.03
2022-11-21T00:26:08.495Z,99978.91
2022-11-21T00:28:36.153Z,99959.38
2022-11-21T00:31:03.695Z,99968.78
2022-11-21T00:33:30.766Z,99967.44
2022-11-21T00:35:57.800Z,99955.81
2022-11-21T00:38:24.744Z,99945.03
2022-11-21T00:40:51.618Z,99933.00
2022-11-21T00:43:18.519Z,99936.34
2022-11-21T00:45:45.377Z,99934.06
2022-11-21T00:48:12.290Z,99924.41
2022-11-21T00:50:39.136Z,99911.19
2022-11-21T00:53:05.955Z,99906.91
2022-11-21T00:55:32.830Z,99896.22
2022-11-21T00:57:59.719Z,99893.56
2022-11-21T01:00:26.591Z,99884.59
2022-11-21T01:02:53.422Z,99863.34
2022-11-21T01:05:20.401Z,99859.06
2022-11-21T01:07:49.363Z,99837.97
2022-11-21T01:10:16.505Z,99837.28
2022-11-21T01:12:44.594Z,99842.72
2022-11-21T01:15:11.690Z,99835.53
2022-11-21T01:17:38.546Z,99821.16
2022-11-21T01:20:07.142Z,99837.69
2022-11-21T01:22:34.164Z,99822.22
2022-11-21T01:25:01.076Z,99821.25
2022-11-21T01:27:27.908Z,99817.84
2022-11-21T01:29:54.817Z,99823.09
2022-11-21T01:32:21.721Z,99815.13
2022-11-21T01:34:48.574Z,99796.09
2022-11-21T01:37:15.418Z,99804.44
2022-11-21T01:39:42.332Z,99795.56
2022-11-21T01:42:12.588Z,99791.00
2022-11-21T01:44:55.419Z,99779.47
2022-11-21T01:47:22.993Z,99779.03
2022-11-21T01:49:51.713Z,99769.84
2022-11-21T01:52:29.965Z,99767.13
2022-11-21T01:55:08.169Z,99776.91
2022-11-21T01:57:42.801Z,99774.59
2022-11-21T02:00:21.659Z,99777.50
2022-11-21T02:02:53.050Z,99785.31
2022-11-21T02:05:26.791Z,99781.81
2022-11-21T02:07:57.175Z,99772.44
2022-11-21T02:10:24.923Z,99777.00
2022-11-21T02:12:54.187Z,99781.34
2022-11-21T02:15:24.548Z,99773.03
2022-11-21T02:17:51.458Z,99773.19
2022-11-21T02:20:21.443Z,99774.50
2022-11-21T02:23:10.115Z,99767.94
2022-11-21T02:25:41.503Z,99769.78
2022-11-21T02:28:12.284Z,99770.22
2022-11-21T02:30:41.148Z,99768.78
2022-11-21T02:33:09.211Z,99763.38
2022-11-21T02:35:36.386Z,99753.81
2022-11-21T02:38:08.139Z,99753.56
2022-11-21T02:40:39.278Z,99747.84
2022-11-21T02:43:28.552Z,99757.84
2022-11-21T02:45:56.313Z,99762.75
2022-11-21T02:48:23.194Z,99737.16
2022-11-21T02:50:50.144Z,99726.88
2022-11-21T02:53:19.198Z,99731.53
2022-11-21T02:55:46.391Z,99725.88
2022-11-21T02:58:13.631Z,99720.75
2022-11-21T03:00:42.729Z,99712.13
2022-11-21T03:03:09.995Z,99716.25
2022-11-21T03:05:38.258Z,99696.28
2022-11-21T03:08:06.179Z,99689.44
2022-11-21T03:10:33.598Z,99682.28
2022-11-21T03:13:03.790Z,99674.41
2022-11-21T03:15:33.444Z,99669.94
2022-11-21T03:18:03.060Z,99653.66
2022-11-21T03:20:31.638Z,99653.19
2022-11-21T03:22:58.717Z,99662.69
2022-11-21T03:25:25.781Z,99653.00
2022-11-21T03:27:54.029Z,99650.56
2022-11-21T03:30:22.287Z,99659.28
2022-11-21T03:32:49.313Z,99647.22
2022-11-21T03:35:16.759Z,99637.00
2022-11-21T03:37:43.678Z,99647.78
2022-11-21T03:40:11.826Z,99641.25
2022-11-21T03:42:38.747Z,99630.13
2022-11-21T03:45:06.187Z,99633.31
2022-11-21T03:47:33.130Z,99628.91
2022-11-21T03:50:00.052Z,99618.56
2022-11-21T03:52:26.920Z,99616.19
2022-11-21T03:54:53.835Z,99616.34
2022-11-21T03:57:20.715Z,99617.72
2022-11-21T03:59:47.550Z,99607.25
2022-11-21T04:02:14.408Z,99604.31
2022-11-21T04:04:41.343Z,99607.22
2022-11-21T04:07:08.804Z,99601.22
2022-11-21T04:09:35.815Z,99608.78
2022-11-21T04:12:07.468Z,99600.06
2022-11-21T04:14:35.009Z,99597.38
2022-11-21T04:17:01.985Z,99587.75
2022-11-21T04:19:28.983Z,99607.00
2022-11-21T04:21:55.784Z,99590.88
2022-11-21T04:24:22.745Z,99582.22
2022-11-21T04:26:49.622Z,99579.16
2022-11-21T04:29:16.556Z,99574.63
2022-11-21T04:31:43.526Z,99567.75
2022-11-21T04:34:10.626Z,99561.59
2022-11-21T04:36:37.629Z,99562.44
2022-11-21T04:39:04.606Z,99565.63
2022-11-21T04:41:31.554Z,99547.81
2022-11-21T04:43:58.431Z,99544.97
2022-11-21T04:46:25.342Z,99553.88
2022-11-21T04:48:52.197Z,99553.25
2022-11-21T04:51:19.046Z,99543.09
2022-11-21T04:53:46.048Z,99546.59
2022-11-21T04:56:16.495Z,99533.81
2022-11-21T04:58:44.899Z,99534.09
2022-11-21T05:01:12.385Z,99535.41
2022-11-21T05:03:39.691Z,99539.38
2022-11-21T05:06:06.580Z,99534.31
2022-11-21T05:08:33.440Z,99545.50
2022-11-21T05:11:19.168Z,99549.50
2022-11-21T05:13:45.992Z,99542.75
2022-11-21T05:16:12.882Z,99545.88
2022-11-21T05:18:39.872Z,99541.03
2022-11-21T05:21:06.767Z,99531.50
2022-11-21T05:23:33.701Z,99523.66
2022-11-21T05:26:00.572Z,99510.09
2022-11-21T05:28:27.588Z,99514.75
2022-11-21T05:30:54.524Z,99518.16
2022-11-21T05:33:21.598Z,99517.56
2022-11-21T05:35:48.499Z,99509.44
2022-11-21T05:38:15.378Z,99517.97
2022-11-21T05:40:42.243Z,99513.53
2022-11-21T05:43:30.729Z,99510.94
2022-11-21T05:45:57.990Z,99518.50
2022-11-21T05:48:25.006Z,99518.41
2022-11-21T05:50:51.903Z,99526.38
2022-11-21T05:53:19.111Z,99513.72
2022-11-21T05:55:46.500Z,99521.47
2022-11-21T05:58:14.234Z,99518.28
2022-11-21T06:00:41.116Z,99518.91
2022-11-21T06:03:30.767Z,99511.34
2022-11-21T06:06:06.639Z,99520.84
2022-11-21T06:08:39.528Z,99531.97
2022-11-21T06:11:07.836Z,99540.53
2022-11-21T06:13:35.053Z,99535.50
2022-11-21T06:16:08.330Z,99541.06
2022-11-21T06:18:40.731Z,99545.38
2022-11-21T06:21:09.069Z,99584.91
2022-11-21T06:23:36.608Z,99577.44
2022-11-21T06:26:06.600Z,99583.97
2022-11-21T06:28:38.496Z,99586.91
2022-11-21T06:31:07.113Z,99586.56
2022-11-21T06:33:34.725Z,99541.19
2022-11-21T06:36:07.478Z,99529.16
2022-11-21T06:38:34.783Z,99545.78
2022-11-21T06:41:12.090Z,99540.94
2022-11-21T06:43:39.000Z,99557.97
2022-11-21T06:46:06.588Z,99563.25
2022-11-21T06:48:35.335Z,99545.28
2022-11-21T06:51:12.748Z,99544.53
2022-11-21T06:53:39.790Z,99554.09
2022-11-21T06:56:06.774Z,99543.13
2022-11-21T06:58:33.821Z,99530.97
2022-11-21T07:01:09.133Z,99547.81
2022-11-21T07:03:36.645Z,99564.19
2022-11-21T07:06:03.806Z,99575.09
2022-11-21T07:08:32.192Z,99576.25
2022-11-21T07:11:25.487Z,99563.00
2022-11-21T07:13:53.098Z,99563.25
2022-11-21T07:16:19.989Z,99579.84
2022-11-21T07:18:46.835Z,99592.19
2022-11-21T07:21:13.901Z,99584.66
2022-11-21T07:23:40.958Z,99570.03
2022-11-21T07:26:08.627Z,99573.25
2022-11-21T07:28:35.621Z,99568.69
2022-11-21T07:31:08.504Z,99571.50
2022-11-21T07:33:39.810Z,99557.59
2022-11-21T07:36:07.465Z,99551.78
2022-11-21T07:38:34.399Z,99561.63
2022-11-21T07:41:01.386Z,99554.63
2022-11-21T07:43:28.275Z,99558.44
2022-11-21T07:45:56.177Z,99562.16
2022-11-21T07:48:23.183Z,99553.28
2022-11-21T07:50:50.089Z,99563.41
2022-11-21T07:53:16.923Z,99559.75
2022-11-21T07:55:43.898Z,99556.34
2022-11-21T07:58:13.111Z,99553.00
2022-11-21T08:00:43.077Z,99548.22
2022-11-21T08:03:14.816Z,99548.66
2022-11-21T08:05:43.621Z,99552.44
2022-11-21T08:08:12.654Z,99547.22
2022-11-21T08:10:42.328Z,99540.91
2022-11-21T08:13:10.097Z,99533.06
2022-11-21T08:15:37.403Z,99545.50
2022-11-21T08:18:21.063Z,99550.63
2022-11-21T08:20:48.088Z,99560.41
2022-11-21T08:23:14.962Z,99557.75
2022-11-21T08:25:42.979Z,99559.66
2022-11-21T08:28:11.505Z,99556.63
2022-11-21T08:30:39.594Z,99556.91
2022-11-21T08:33:07.515Z,99562.28
2022-11-21T08:35:38.278Z,99564.94
2022-11-21T08:38:06.197Z,99557.00
2022-11-21T08:40:34.024Z,99565.59
2022-11-21T08:43:06.013Z,99558.66
2022-11-21T08:45:34.481Z,99558.59
2022-11-21T08:48:02.007Z,99559.75
2022-11-21T08:50:29.265Z,99547.78
2022-11-21T08:53:03.096Z,99562.75
2022-11-21T08:55:30.972Z,99547.31
2022-11-21T08:57:58.426Z,99543.25
2022-11-21T09:00:25.806Z,99554.31
2022-11-21T09:02:53.031Z,99554.53
2022-11-21T09:05:20.108Z,99546.47
2022-11-21T09:07:47.930Z,99548.38
2022-11-21T09:10:15.347Z,99541.84
2022-11-21T09:12:42.250Z,99540.28
2022-11-21T09:15:30.921Z,99517.94
2022-11-21T09:18:04.936Z,99513.81
2022-11-21T09:20:34.565Z,99504.75
2022-11-21T09:23:05.846Z,99499.25
2022-11-21T09:25:33.286Z,99501.03
2022-11-21T09:28:02.151Z,99493.81
2022-11-21T09:30:29.065Z,99486.56
2022-11-21T09:33:04.028Z,99486.16
2022-11-21T09:35:31.470Z,99479.28
2022-11-21T09:37:58.655Z,99482.03
2022-11-21T09:40:26.096Z,99472.63
2022-11-21T09:43:01.562Z,99476.25
2022-11-21T09:45:47.800Z,99464.09
2022-11-21T09:48:22.628Z,99462.28
2022-11-21T09:50:59.090Z,99444.56
2022-11-21T09:53:46.436Z,99455.13
2022-11-21T09:56:23.379Z,99462.13
2022-11-21T09:59:37.251Z,99452.38
2022-11-21T10:02:20.778Z,99455.63
2022-11-21T10:04:49.231Z,99454.13
2022-11-21T10:07:22.615Z,99438.25
2022-11-21T10:10:23.576Z,99436.75
2022-11-21T10:13:19.530Z,99434.63
2022-11-21T10:16:06.570Z,99429.28
2022-11-21T10:19:03.978Z,99402.38
2022-11-21T10:21:45.676Z,99420.13
2022-11-21T10:24:12.595Z,99415.53
2022-11-21T10:26:52.061Z,99412.72
2022-11-21T10:29:21.933Z,99395.50
2022-11-21T10:31:49.602Z,99398.94
2022-11-21T10:34:21.366Z,99395.16
2022-11-21T10:36:56.685Z,99396.28
2022-11-21T10:39:36.139Z,99406.19
2022-11-21T10:42:24.610Z,99388.94
2022-11-21T10:45:11.036Z,99399.47
2022-11-21T10:47:38.017Z,99406.47
2022-11-21T10:50:23.456Z,99391.69
2022-11-21T10:53:03.222Z,99388.38
2022-11-21T10:55:30.095Z,99403.16
2022-11-21T10:57:57.148Z,99383.50
2022-11-21T11:00:27.635Z,99374.94
2022-11-21T11:02:57.595Z,99384.25
2022-11-21T11:05:29.597Z,99380.44
2022-11-21T11:08:06.843Z,99374.34
2022-11-21T11:11:08.299Z,99374.63
2022-11-21T11:14:10.827Z,99364.06
2022-11-21T11:16:45.169Z,99397.22
2022-11-21T11:19:14.916Z,99391.75
2022-11-21T11:21:41.762Z,99369.63
2022-11-21T11:24:11.818Z,99369.22
2022-11-21T11:26:48.471Z,99377.66
2022-11-21T11:29:24.717Z,99373.34
2022-11-21T11:32:20.618Z,99360.53
2022-11-21T11:34:56.887Z,99371.97
2022-11-21T11:37:41.009Z,99362.97
2022-11-21T11:40:16.212Z,99359.06
2022-11-21T11:43:13.970Z,99355.94
2022-11-21T11:46:26.898Z,99362.31
2022-11-21T11:51:54.631Z,99361.44
2022-11-21T11:54:34.628Z,99357.88
2022-11-21T11:57:04.431Z,99364.91
2022-11-21T11:59:43.786Z,99366.09
2022-11-21T12:02:23.844Z,99356.72
2022-11-21T12:05:01.278Z,99359.44
2022-11-21T12:08:38.957Z,99356.13
2022-11-21T12:10:34.285Z,99352.69
2022-11-21T12:13:14.188Z,99352.44
2022-11-21T12:15:50.989Z,99354.44
2022-11-21T12:18:21.569Z,99364.66
2022-11-21T12:21:15.099Z,99393.44
2022-11-21T12:23:50.403Z,99386.34
2022-11-21T12:26:29.123Z,99408.28
2022-11-21T12:29:13.981Z,99406.69
2022-11-21T12:31:52.946Z,99410.41
2022-11-21T12:34:25.792Z,99405.81
2022-11-21T12:36:58.643Z,99420.69
2022-11-21T12:40:19.356Z,99422.09
2022-11-21T12:43:01.404Z,99416.81
2022-11-21T12:45:39.496Z,99424.31
2022-11-21T12:49:06.605Z,99437.84
2022-11-21T12:52:15.588Z,99449.44
2022-11-21T12:54:48.100Z,99450.28
2022-11-21T12:57:20.267Z,99470.50
2022-11-21T13:00:17.874Z,99487.22
2022-11-21T13:03:03.455Z,99490.53
2022-11-21T13:05:36.237Z,99494.97
2022-11-21T13:08:12.254Z,99504.94
2022-11-21T13:10:49.840Z,99506.06
2022-11-21T13:13:26.395Z,99505.47
2022-11-21T13:16:17.162Z,99527.56
2022-11-21T13:18:48.204Z,99535.63
2022-11-21T13:21:50.264Z,99531.31
2022-11-21T13:24:44.781Z,99531.31
2022-11-21T13:27:38.481Z,99538.03
2022-11-21T13:30:09.512Z,99555.63
2022-11-21T13:32:49.797Z,99555.28
2022-11-21T13:35:16.742Z,99544.94
2022-11-21T13:37:50.050Z,99542.09
2022-11-21T13:40:32.107Z,99537.38
2022-11-21T13:43:32.789Z,99531.25
2022-11-21T13:46:01.016Z,99546.13
2022-11-21T13:48:31.374Z,99550.56
2022-11-21T13:51:00.987Z,99564.03
2022-11-21T13:53:36.883Z,99573.59
2022-11-21T13:56:40.717Z,99574.91
2022-11-21T13:59:19.758Z,99587.56
2022-11-21T14:02:04.934Z,99588.56
2022-11-21T14:04:43.792Z,99590.91
2022-11-21T14:07:38.785Z,99596.25
2022-11-21T14:10:35.847Z,99597.13
2022-11-21T14:13:04.078Z,99599.41
2022-11-21T14:15:52.925Z,99608.16
2022-11-21T14:18:24.635Z,99611.53
2022-11-21T14:20:57.537Z,99620.13
2022-11-21T14:23:33.347Z,99616.69
2022-11-21T14:26:04.437Z,99624.34
2022-11-21T14:28:33.840Z,99625.88
2022-11-21T14:31:09.078Z,99619.91
2022-11-21T14:33:35.915Z,99623.81
2022-11-21T14:36:13.375Z,99634.06
2022-11-21T14:38:43.795Z,99641.84
2022-11-21T14:41:26.079Z,99643.28
2022-11-21T14:43:59.119Z,99644.31
2022-11-21T14:46:28.385Z,99640.16
2022-11-21T14:48:57.526Z,99647.50
2022-11-21T14:51:25.843Z,99648.59
2022-11-21T14:53:53.842Z,99650.56
2022-11-21T14:56:24.585Z,99654.19
2022-11-21T14:58:54.210Z,99660.22
2022-11-21T15:01:24.745Z,99690.59
2022-11-21T15:04:03.568Z,99675.72
2022-11-21T15:06:33.670Z,99682.84
2022-11-21T15:11:54.348Z,99686.03
2022-11-21T15:14:39.668Z,99690.16
2022-11-21T15:17:11.564Z,99699.44
2022-11-21T15:19:38.640Z,99717.25
2022-11-21T15:22:05.679Z,99707.69
2022-11-21T15:24:43.299Z,99710.91
2022-11-21T15:27:28.338Z,99734.69
2022-11-21T15:30:07.271Z,99726.59
2022-11-21T15:32:34.222Z,99711.03
2022-11-21T15:35:39.492Z,99709.53
2022-11-21T15:38:20.281Z,99705.44
2022-11-21T15:41:05.107Z,99690.09
2022-11-21T15:43:38.429Z,99680.75
2022-11-21T15:46:15.457Z,99675.34
2022-11-21T15:48:44.860Z,99674.63
2022-11-21T15:51:12.363Z,99687.38
2022-11-21T15:53:39.538Z,99686.47
2022-11-21T15:56:07.069Z,99697.84
2022-11-21T15:58:34.133Z,99703.00
2022-11-21T16:01:01.282Z,99699.44
2022-11-21T16:03:28.326Z,99697.56
2022-11-21T16:05:55.287Z,99708.81
2022-11-21T16:08:22.179Z,99734.94
2022-11-21T16:10:49.134Z,99748.72
2022-11-21T16:13:15.994Z,99761.94
2022-11-21T16:15:43.008Z,99781.28
2022-11-21T16:18:10.046Z,99772.09
2022-11-21T16:20:36.901Z,99779.53
2022-11-21T16:23:04.280Z,99773.66
2022-11-21T16:25:31.208Z,99784.13
2022-11-21T16:27:59.800Z,99785.47
2022-11-21T16:30:29.095Z,99800.41
2022-11-21T16:32:56.501Z,99798.34
2022-11-21T16:35:23.991Z,99798.63
2022-11-21T16:37:53.295Z,99790.91
2022-11-21T16:40:20.938Z,99800.31
2022-11-21T16:42:47.853Z,99805.25
2022-11-21T16:45:14.805Z,99795.28
2022-11-21T16:47:45.841Z,99790.75
2022-11-21T16:50:14.374Z,99785.59
2022-11-21T16:52:41.336Z,99783.84
2022-11-21T16:55:08.535Z,99786.59
2022-11-21T16:57:35.570Z,99781.25
2022-11-21T17:00:02.623Z,99787.97
2022-11-21T17:02:30.187Z,99788.63
2022-11-21T17:04:57.083Z,99779.34
2022-11-21T17:07:23.957Z,99773.34
2022-11-21T17:09:51.697Z,99776.72
2022-11-21T17:12:18.537Z,99787.63
2022-11-21T17:14:47.604Z,99791.13
2022-11-21T17:17:14.536Z,99785.09
2022-11-21T17:19:41.539Z,99783.75
2022-11-21T17:22:08.443Z,99782.31
2022-11-21T17:24:35.376Z,99785.50
2022-11-21T17:27:02.915Z,99782.59
2022-11-21T17:29:30.542Z,99784.94
2022-11-21T17:31:57.524Z,99788.28
2022-11-21T17:34:28.428Z,99791.22
2022-11-21T17:36:59.750Z,99801.38
2022-11-21T17:39:29.920Z,99794.91
2022-11-21T17:41:59.458Z,99804.25
2022-11-21T17:44:26.508Z,99810.88
2022-11-21T17:46:53.793Z,99804.16
2022-11-21T17:49:21.569Z,99812.84
2022-11-21T17:51:53.799Z,99830.00
2022-11-21T17:54:23.455Z,99836.44
2022-11-21T17:56:56.461Z,99853.28
2022-11-21T17:59:23.861Z,99851.41
2022-11-21T18:01:50.858Z,99860.69
2022-11-21T18:04:18.475Z,99872.50
2022-11-21T18:06:45.446Z,99877.97
2022-11-21T18:09:13.304Z,99881.66
2022-11-21T18:11:40.898Z,99880.78
2022-11-21T18:14:10.182Z,99874.88
2022-11-21T18:16:39.631Z,99880.00
2022-11-21T18:19:07.335Z,99888.03
2022-11-21T18:21:36.391Z,99880.41
2022-11-21T18:24:03.583Z,99879.88
2022-11-21T18:26:33.497Z,99872.34
2022-11-21T18:29:28.746Z,99867.91
2022-11-21T18:31:49.343Z,99863.72
2022-11-21T18:34:16.412Z,99853.88
2022-11-21T18:36:43.365Z,99849.59
2022-11-21T18:39:14.546Z,99851.69
2022-11-21T18:41:43.365Z,99855.94
2022-11-21T18:44:11.391Z,99852.38
2022-11-21T18:46:39.710Z,99840.94
2022-11-21T18:49:08.095Z,99831.09
2022-11-21T18:51:36.695Z,99830.34
2022-11-21T18:54:09.777Z,99833.00
2022-11-21T18:56:38.351Z,99833.88
2022-11-21T18:59:06.661Z,99843.84
2022-11-21T19:01:35.949Z,99849.19
2022-11-21T19:04:04.005Z,99855.91
2022-11-21T19:06:31.577Z,99858.50
2022-11-21T19:08:59.081Z,99870.81
2022-11-21T19:11:28.656Z,99888.84
2022-11-21T19:13:57.538Z,99891.25
2022-11-21T19:16:26.632Z,99888.25
2022-11-21T19:19:33.578Z,99895.78
2022-11-21T19:21:43.844Z,99900.44
2022-11-21T19:24:13.560Z,99905.91
2022-11-21T19:26:41.579Z,99906.25
2022-11-21T19:29:08.936Z,99905.59
2022-11-21T19:31:41.076Z,99908.25
2022-11-21T19:34:13.162Z,99928.53
2022-11-21T19:36:40.197Z,99931.16
2022-11-21T19:39:07.775Z,99938.56
2022-11-21T19:41:34.690Z,99942.78
2022-11-21T19:44:02.014Z,99942.63
2022-11-21T19:46:34.539Z,99941.16
2022-11-21T19:49:02.619Z,99942.84
2022-11-21T19:51:32.328Z,99947.91
2022-11-21T19:53:59.255Z,99945.56
2022-11-21T19:56:27.008Z,99949.31
2022-11-21T19:58:55.309Z,99940.56
2022-11-21T20:01:25.046Z,99925.72
2022-11-21T20:03:54.880Z,99929.41
2022-11-21T20:06:24.564Z,99942.47
2022-11-21T20:08:55.897Z,99951.72
2022-11-21T20:11:24.353Z,99952.47
2022-11-21T20:13:51.461Z,99947.19
2022-11-21T20:16:23.972Z,99937.78
2022-11-21T20:18:52.280Z,99934.09
2022-11-21T20:21:20.231Z,99927.78
2022-11-21T20:23:47.813Z,99920.09
2022-11-21T20:26:16.501Z,99895.81
2022-11-21T20:28:44.132Z,99869.28
2022-11-21T20:31:12.507Z,99873.72
2022-11-21T20:33:41.793Z,99884.38
2022-11-21T20:36:18.701Z,99903.50
2022-11-21T20:38:51.168Z,99908.19
2022-11-21T20:41:19.484Z,99905.66
2022-11-21T20:44:41.662Z,99901.09
2022-11-21T20:46:35.209Z,99894.00
2022-11-21T20:49:02.444Z,99898.38
2022-11-21T20:54:16.289Z,99901.69
2022-11-21T20:56:44.579Z,99905.72
2022-11-21T20:59:12.193Z,99918.91
2022-11-21T21:01:39.307Z,99934.41
2022-11-21T21:04:06.406Z,99946.56
2022-11-21T21:06:33.347Z,99946.19
2022-11-21T21:09:00.311Z,99949.38
2022-11-21T21:14:14.432Z,99960.03
2022-11-21T21:16:43.420Z,99960.88
2022-11-21T21:19:10.342Z,99960.56
2022-11-21T21:21:37.551Z,99949.38
2022-11-21T21:24:07.538Z,99952.34
2022-11-21T21:26:42.179Z,99960.47
2022-11-21T21:29:14.326Z,99954.88
2022-11-21T21:31:46.765Z,99959.66
2022-11-21T21:34:17.299Z,99957.09
2022-11-21T21:36:44.285Z,99982.19
2022-11-21T21:39:11.456Z,99974.94
2022-11-21T21:41:44.820Z,99985.66
2022-11-21T21:44:12.434Z,99986.88
2022-11-21T21:46:39.342Z,99973.66
2022-11-21T21:49:06.168Z,99977.16
2022-11-21T21:51:33.083Z,99980.81
2022-11-21T21:54:00.145Z,99996.63
2022-11-21T21:56:28.536Z,100003.78
2022-11-21T21:58:57.307Z,100006.19
2022-11-21T22:01:29.925Z,100009.75
2022-11-21T22:04:02.872Z,100005.50
2022-11-21T22:06:32.601Z,100014.34
2022-11-21T22:09:00.119Z,100021.16
2022-11-21T22:11:32.315Z,100023.81
2022-11-21T22:14:05.164Z,100021.41
2022-11-21T22:16:32.312Z,100021.41
2022-11-21T22:18:59.480Z,100009.97
2022-11-21T22:21:34.131Z,99999.47
2022-11-21T22:24:24.980Z,99996.84
2022-11-21T22:26:49.927Z,99991.50
2022-11-21T22:29:16.993Z,99989.78
2022-11-21T22:31:43.903Z,99996.84
2022-11-21T22:34:13.768Z,99999.41
2022-11-21T22:36:41.760Z,100005.59
2022-11-21T22:39:09.186Z,100006.16
2022-11-21T22:41:36.170Z,100005.22
2022-11-21T22:44:03.333Z,100011.25
2022-11-21T22:46:31.056Z,100005.47
2022-11-21T22:48:58.696Z,100001.41
2022-11-21T22:51:29.782Z,100009.13
2022-11-21T22:53:57.481Z,100000.66
2022-11-21T22:56:25.348Z,100000.66
2022-11-21T22:58:53.105Z,99990.22
2022-11-21T23:01:22.257Z,100001.41
2022-11-21T23:03:49.788Z,100014.56
2022-11-21T23:06:23.852Z,100024.28
2022-11-21T23:08:52.637Z,100025.03
2022-11-21T23:11:23.021Z,100042.84
2022-11-21T23:13:51.429Z,100046.69
2022-11-21T23:16:19.196Z,100036.88
2022-11-21T23:18:46.369Z,100043.22
2022-11-21T23:21:14.443Z,100054.50
2022-11-21T23:23:41.470Z,100057.97
2022-11-21T23:26:08.563Z,100057.78
2022-11-21T23:28:35.457Z,100051.16
2022-11-21T23:31:02.739Z,100038.22
2022-11-21T23:33:29.575Z,100037.44
2022-11-21T23:35:56.479Z,100027.94
2022-11-21T23:38:23.375Z,100025.38
2022-11-21T23:40:50.469Z,100026.28
2022-11-21T23:43:18.148Z,100031.41
2022-11-21T23:45:49.476Z,100034.09
2022-11-21T23:48:16.608Z,100034.13
2022-11-21T23:50:43.613Z,100035.84
2022-11-21T23:53:10.560Z,100030.53
2022-11-21T23:55:37.468Z,100036.72
2022-11-21T23:58:04.512Z,100042.88
